Time;durP1;ratioP1;P1;durP2;ratioP2;P2;SDS_P1;SDS_P2;PMS_P1;PMS_P2;Temp;Humidity;BMP_temperature;BMP_pressure;BME280_temperature;BME280_humidity;BME280_pressure;Samples;Min_cycle;Max_cycle;Signal;HPM_P1;HPM_P2
2022/08/21 00:01:45;;;;;;;1.40;1.30;;;27.70;74.80;;;;;;4955924;29;20541;-85
2022/08/21 00:04:13;;;;;;;1.20;1.10;;;27.70;74.10;;;;;;4956014;29;20533;-85
2022/08/21 00:06:39;;;;;;;1.30;1.20;;;27.70;74.00;;;;;;4956147;29;20843;-85
2022/08/21 00:09:08;;;;;;;1.10;1.00;;;27.70;74.00;;;;;;4956019;29;20518;-88
2022/08/21 00:11:38;;;;;;;1.30;1.20;;;27.80;74.20;;;;;;4955783;29;20478;-85
2022/08/21 00:14:08;;;;;;;1.30;1.20;;;27.70;74.10;;;;;;4955837;29;20537;-85
2022/08/21 00:16:34;;;;;;;1.43;1.07;;;27.70;74.20;;;;;;4955932;29;20466;-85
2022/08/21 00:19:01;;;;;;;1.20;1.10;;;27.70;74.10;;;;;;4955735;29;20449;-85
2022/08/21 00:21:28;;;;;;;1.50;1.40;;;27.70;74.10;;;;;;4955708;29;20450;-84
2022/08/21 00:23:55;;;;;;;1.10;1.00;;;27.70;74.10;;;;;;4955635;29;20530;-85
2022/08/21 00:26:22;;;;;;;1.30;1.20;;;27.70;74.20;;;;;;4955520;29;21010;-85
2022/08/21 00:28:50;;;;;;;1.43;1.23;;;27.70;74.20;;;;;;4955698;29;20485;-84
2022/08/21 00:31:17;;;;;;;2.07;1.17;;;27.70;74.20;;;;;;4955567;29;20481;-85
2022/08/21 00:33:45;;;;;;;1.53;1.43;;;27.70;74.30;;;;;;4955411;29;20447;-85
2022/08/21 00:36:13;;;;;;;1.10;1.00;;;27.70;74.20;;;;;;4955534;29;20453;-86
2022/08/21 00:38:40;;;;;;;1.10;1.00;;;27.70;74.30;;;;;;4955730;29;20459;-84
2022/08/21 00:41:10;;;;;;;1.20;1.10;;;27.70;74.30;;;;;;4955397;29;20442;-89
2022/08/21 00:43:40;;;;;;;1.10;1.00;;;27.70;74.20;;;;;;4955240;29;20569;-85
2022/08/21 00:46:08;;;;;;;1.10;1.00;;;27.70;75.10;;;;;;4955242;29;20623;-85
2022/08/21 00:48:35;;;;;;;1.30;1.20;;;27.70;74.30;;;;;;4955450;29;20442;-85
2022/08/21 00:51:06;;;;;;;1.30;1.20;;;27.70;74.30;;;;;;4955569;29;20454;-85
2022/08/21 00:53:36;;;;;;;1.27;1.17;;;27.70;74.30;;;;;;4955182;29;20446;-88
2022/08/21 00:56:04;;;;;;;1.37;1.27;;;27.70;74.40;;;;;;4955464;29;20969;-87
2022/08/21 00:58:35;;;;;;;1.20;1.10;;;27.70;74.40;;;;;;4955493;29;20449;-85
2022/08/21 01:01:04;;;;;;;1.33;1.23;;;27.70;74.40;;;;;;4955561;29;20934;-84
2022/08/21 01:03:33;;;;;;;1.30;1.20;;;27.70;74.40;;;;;;4955076;29;20542;-85
2022/08/21 01:06:00;;;;;;;1.30;1.20;;;27.70;74.30;;;;;;4955223;29;20905;-88
2022/08/21 01:08:28;;;;;;;1.20;1.10;;;27.70;74.90;;;;;;4955214;28;20880;-84
2022/08/21 01:10:56;;;;;;;1.47;1.10;;;27.70;74.50;;;;;;4958098;29;20461;-84
2022/08/21 01:13:24;;;;;;;1.47;1.37;;;27.70;74.50;;;;;;4959179;29;20852;-84
2022/08/21 01:15:54;;;;;;;1.30;1.20;;;27.70;74.60;;;;;;4959169;29;20501;-85
2022/08/21 01:18:22;;;;;;;1.30;1.20;;;27.70;74.50;;;;;;4959264;29;20533;-85
2022/08/21 01:21:09;;;;;;;1.23;1.13;;;27.70;74.60;;;;;;4959195;29;20493;-84
2022/08/21 01:23:37;;;;;;;1.33;1.23;;;27.70;74.50;;;;;;4958914;29;20533;-85
2022/08/21 01:26:05;;;;;;;1.37;1.27;;;27.60;74.60;;;;;;4958869;29;20577;-85
2022/08/21 01:28:37;;;;;;;1.30;1.20;;;27.70;74.60;;;;;;4959097;29;20536;-89
2022/08/21 01:31:07;;;;;;;1.13;1.03;;;27.70;74.60;;;;;;4958792;29;20490;-84
2022/08/21 01:33:34;;;;;;;1.40;1.30;;;27.70;74.60;;;;;;4958782;29;20541;-88
2022/08/21 01:36:01;;;;;;;1.23;1.13;;;27.70;74.50;;;;;;4958860;29;20545;-89
2022/08/21 01:38:29;;;;;;;1.37;1.27;;;27.70;74.60;;;;;;4958748;29;20574;-85
2022/08/21 01:40:56;;;;;;;1.53;1.43;;;27.70;74.50;;;;;;4958631;29;20485;-90
2022/08/21 01:43:23;;;;;;;1.40;1.30;;;27.70;74.60;;;;;;4958472;29;20553;-85
2022/08/21 01:45:50;;;;;;;1.37;1.27;;;27.60;74.40;;;;;;4958500;29;20504;-88
2022/08/21 01:48:17;;;;;;;1.27;1.13;;;27.60;74.40;;;;;;4958762;29;20537;-84
2022/08/21 01:50:44;;;;;;;1.27;1.17;;;27.70;74.50;;;;;;4959012;29;20537;-85
2022/08/21 01:53:11;;;;;;;1.40;1.30;;;27.60;74.40;;;;;;4958330;29;20486;-85
2022/08/21 01:55:39;;;;;;;1.30;1.20;;;27.70;74.50;;;;;;4958307;29;20438;-85
2022/08/21 01:58:06;;;;;;;1.13;1.03;;;27.70;75.30;;;;;;4958422;29;20528;-85
2022/08/21 02:00:33;;;;;;;1.53;1.43;;;27.60;74.40;;;;;;4958486;29;20537;-85
2022/08/21 02:03:00;;;;;;;1.40;1.30;;;27.60;74.40;;;;;;4958262;29;20541;-84
2022/08/21 02:05:27;;;;;;;1.70;1.60;;;27.60;74.40;;;;;;4958135;29;20521;-84
2022/08/21 02:07:55;;;;;;;1.00;0.90;;;27.60;74.30;;;;;;4958127;29;20544;-85
2022/08/21 02:10:26;;;;;;;1.30;1.20;;;27.70;74.50;;;;;;4958049;29;20542;-84
2022/08/21 02:12:54;;;;;;;1.40;1.30;;;27.60;74.30;;;;;;4958390;29;20435;-86
2022/08/21 02:15:22;;;;;;;1.30;1.20;;;27.60;74.30;;;;;;4957941;29;20466;-85
2022/08/21 02:17:51;;;;;;;1.27;1.17;;;27.60;74.30;;;;;;4958009;29;20539;-85
2022/08/21 02:20:21;;;;;;;1.50;1.40;;;27.60;74.30;;;;;;4957734;28;20542;-85
2022/08/21 02:22:49;;;;;;;1.43;1.33;;;27.60;74.30;;;;;;4957833;29;20441;-85
2022/08/21 02:25:17;;;;;;;1.20;1.10;;;27.60;74.30;;;;;;4957786;29;20449;-85
2022/08/21 02:27:47;;;;;;;1.23;1.13;;;27.60;74.30;;;;;;4957877;29;20616;-85
2022/08/21 02:30:18;;;;;;;1.10;1.00;;;27.60;74.20;;;;;;4957976;29;20964;-85
2022/08/21 02:32:45;;;;;;;1.10;1.00;;;27.60;74.40;;;;;;4957639;29;20532;-85
2022/08/21 02:35:12;;;;;;;1.60;1.50;;;27.60;74.40;;;;;;4957625;29;20481;-88
2022/08/21 02:37:47;;;;;;;1.10;1.00;;;27.60;74.30;;;;;;4957680;29;20446;-85
2022/08/21 02:40:16;;;;;;;1.30;1.20;;;27.60;75.20;;;;;;4957619;29;20529;-85
2022/08/21 02:42:43;;;;;;;1.30;1.20;;;27.60;74.40;;;;;;4957480;29;20439;-88
2022/08/21 02:45:11;;;;;;;1.40;1.30;;;27.60;74.30;;;;;;4957229;29;20501;-85
2022/08/21 02:47:39;;;;;;;1.37;1.27;;;27.60;74.30;;;;;;4957315;29;21075;-88
2022/08/21 02:50:07;;;;;;;1.40;1.30;;;27.60;74.30;;;;;;4957556;29;20465;-85
2022/08/21 02:52:35;;;;;;;1.20;1.10;;;27.60;74.10;;;;;;4957313;29;20934;-85
2022/08/21 02:55:02;;;;;;;1.20;1.00;;;27.60;74.20;;;;;;4957560;29;20780;-86
2022/08/21 02:57:28;;;;;;;1.20;1.10;;;27.60;74.10;;;;;;4957261;29;20529;-87
2022/08/21 02:59:55;;;;;;;1.40;1.30;;;27.60;74.20;;;;;;4957401;29;20616;-85
2022/08/21 03:02:22;;;;;;;1.20;1.07;;;27.60;74.20;;;;;;4957219;29;20570;-85
2022/08/21 03:04:50;;;;;;;1.40;1.30;;;27.60;74.10;;;;;;4957243;29;20443;-84
2022/08/21 03:07:17;;;;;;;1.37;1.27;;;27.60;74.10;;;;;;4957292;29;20576;-85
2022/08/21 03:09:45;;;;;;;1.30;1.20;;;27.60;74.10;;;;;;4957092;29;20485;-85
2022/08/21 03:12:12;;;;;;;1.10;1.00;;;27.60;74.20;;;;;;4956979;29;20454;-85
2022/08/21 03:14:39;;;;;;;1.40;1.30;;;27.60;74.20;;;;;;4956826;29;20553;-86
2022/08/21 03:17:06;;;;;;;1.20;1.10;;;27.60;74.20;;;;;;4957405;29;20477;-85
2022/08/21 03:19:34;;;;;;;1.40;1.30;;;27.60;74.20;;;;;;4957002;29;20450;-84
2022/08/21 03:22:02;;;;;;;1.37;1.27;;;27.60;74.10;;;;;;4956915;29;20447;-85
2022/08/21 03:24:29;;;;;;;1.20;1.10;;;27.60;75.00;;;;;;4956840;29;20582;-85
2022/08/21 03:26:56;;;;;;;1.20;1.10;;;27.60;74.10;;;;;;4956866;29;20486;-85
2022/08/21 03:29:23;;;;;;;1.30;1.20;;;27.60;74.20;;;;;;4956833;29;20454;-85
2022/08/21 03:31:50;;;;;;;1.20;1.10;;;27.60;74.20;;;;;;4956185;28;20477;-84
2022/08/21 03:34:17;;;;;;;1.20;1.10;;;27.60;74.10;;;;;;4956524;29;20953;-85
2022/08/21 03:36:44;;;;;;;1.20;1.10;;;27.60;74.10;;;;;;4956475;29;21011;-85
2022/08/21 03:39:12;;;;;;;1.17;1.07;;;27.60;74.10;;;;;;4956596;29;20446;-85
2022/08/21 03:41:39;;;;;;;1.93;1.00;;;27.60;74.10;;;;;;4956403;29;20501;-85
2022/08/21 03:44:06;;;;;;;1.00;0.90;;;27.60;74.00;;;;;;4956069;29;20836;-84
2022/08/21 03:46:33;;;;;;;1.20;1.10;;;27.60;74.10;;;;;;4956229;29;20514;-85
2022/08/21 03:49:01;;;;;;;1.20;1.10;;;27.60;74.20;;;;;;4956706;29;20497;-85
2022/08/21 03:51:28;;;;;;;1.13;1.00;;;27.60;73.90;;;;;;4956176;29;20529;-85
2022/08/21 03:53:55;;;;;;;1.30;1.20;;;27.50;73.90;;;;;;4956460;29;20501;-84
2022/08/21 03:56:23;;;;;;;1.27;1.17;;;27.60;74.00;;;;;;4956518;29;20968;-85
2022/08/21 03:58:50;;;;;;;1.63;1.20;;;27.60;74.00;;;;;;4956378;29;20834;-85
2022/08/21 04:01:17;;;;;;;1.10;1.00;;;27.50;74.00;;;;;;4956160;29;20529;-84
2022/08/21 04:03:44;;;;;;;1.50;1.40;;;27.50;73.90;;;;;;4955940;29;21010;-84
2022/08/21 04:06:11;;;;;;;1.17;1.07;;;27.50;74.00;;;;;;4955914;29;20521;-85
2022/08/21 04:08:38;;;;;;;1.10;1.00;;;27.50;74.00;;;;;;4956021;29;20537;-88
2022/08/21 04:11:06;;;;;;;1.30;1.20;;;27.50;74.00;;;;;;4955722;29;20505;-85
2022/08/21 04:13:34;;;;;;;1.17;1.07;;;27.50;74.00;;;;;;4955857;29;20516;-84
2022/08/21 04:16:01;;;;;;;1.20;1.10;;;27.50;75.00;;;;;;4955824;29;20493;-85
2022/08/21 04:18:28;;;;;;;1.40;1.30;;;27.50;74.10;;;;;;4955904;29;20501;-84
2022/08/21 04:20:57;;;;;;;1.40;1.30;;;27.50;74.00;;;;;;4955834;29;21046;-85
2022/08/21 04:23:25;;;;;;;1.30;1.20;;;27.50;74.00;;;;;;4955822;29;20449;-85
2022/08/21 04:25:53;;;;;;;1.20;1.10;;;27.50;73.90;;;;;;4955861;29;20919;-85
2022/08/21 04:28:20;;;;;;;1.40;1.30;;;27.50;74.00;;;;;;4955741;29;20997;-84
2022/08/21 04:30:50;;;;;;;1.30;1.20;;;27.50;74.00;;;;;;4955799;29;20438;-85
2022/08/21 04:33:17;;;;;;;1.30;1.20;;;27.50;74.00;;;;;;4955923;29;20527;-85
2022/08/21 04:35:43;;;;;;;1.03;0.93;;;27.50;74.20;;;;;;4955507;29;20494;-85
2022/08/21 04:38:11;;;;;;;1.30;1.20;;;27.50;74.10;;;;;;4955759;29;20542;-87
2022/08/21 04:40:38;;;;;;;1.40;1.30;;;27.50;74.10;;;;;;4955594;29;20457;-85
2022/08/21 04:43:08;;;;;;;1.20;1.10;;;27.50;73.90;;;;;;4955218;28;20533;-88
2022/08/21 04:45:37;;;;;;;1.30;1.20;;;27.50;74.10;;;;;;4955610;29;21045;-86
2022/08/21 04:48:08;;;;;;;1.10;1.00;;;27.50;74.00;;;;;;4956085;29;20521;-85
2022/08/21 04:50:42;;;;;;;1.30;1.20;;;27.50;74.00;;;;;;4956183;29;20439;-85
2022/08/21 04:53:14;;;;;;;1.10;1.00;;;27.50;74.20;;;;;;4955535;29;20440;-85
2022/08/21 04:55:42;;;;;;;1.40;1.30;;;27.50;74.10;;;;;;4955631;29;20517;-88
2022/08/21 04:58:12;;;;;;;0.90;0.87;;;27.50;74.20;;;;;;4955447;29;20486;-84
2022/08/21 05:00:39;;;;;;;1.20;1.10;;;27.50;74.20;;;;;;4955479;29;20457;-85
2022/08/21 05:03:10;;;;;;;1.53;1.43;;;27.50;74.30;;;;;;4955536;29;20870;-85
2022/08/21 05:05:37;;;;;;;1.20;1.10;;;27.50;74.20;;;;;;4955761;29;20473;-88
2022/08/21 05:08:08;;;;;;;1.30;1.20;;;27.50;74.20;;;;;;4955204;29;20493;-85
2022/08/21 05:10:35;;;;;;;1.53;1.43;;;27.50;74.20;;;;;;4955345;29;20454;-85
2022/08/21 05:13:03;;;;;;;1.10;1.00;;;27.50;74.30;;;;;;4955060;29;20461;-85
2022/08/21 05:15:30;;;;;;;1.83;1.10;;;27.50;74.80;;;;;;4954758;29;20470;-84
2022/08/21 05:17:57;;;;;;;1.37;1.27;;;27.40;74.40;;;;;;4955328;29;20520;-84
2022/08/21 05:20:26;;;;;;;1.33;1.23;;;27.40;74.40;;;;;;4955281;29;20453;-85
2022/08/21 05:22:53;;;;;;;1.43;1.33;;;27.40;74.50;;;;;;4955250;29;20473;-85
2022/08/21 05:25:20;;;;;;;1.30;1.20;;;27.40;74.70;;;;;;4954963;29;20533;-89
2022/08/21 05:27:47;;;;;;;1.43;1.33;;;27.40;74.70;;;;;;4955054;29;20485;-84
2022/08/21 05:30:14;;;;;;;1.20;1.10;;;27.40;74.60;;;;;;4954986;29;20486;-85
2022/08/21 05:32:41;;;;;;;1.10;1.00;;;27.40;74.80;;;;;;4955077;29;20478;-84
2022/08/21 05:35:09;;;;;;;1.10;1.00;;;27.40;74.90;;;;;;4954907;29;20470;-85
2022/08/21 05:37:37;;;;;;;1.20;1.10;;;27.40;75.00;;;;;;4954846;29;20470;-86
2022/08/21 05:40:05;;;;;;;1.37;1.27;;;27.40;75.00;;;;;;4954764;29;20541;-85
2022/08/21 05:42:32;;;;;;;1.30;1.20;;;27.40;75.10;;;;;;4955078;29;20451;-85
2022/08/21 05:44:59;;;;;;;1.30;1.20;;;27.40;75.00;;;;;;4954552;29;20481;-85
2022/08/21 05:47:26;;;;;;;1.47;1.30;;;27.40;75.00;;;;;;4954787;29;20522;-85
2022/08/21 05:49:53;;;;;;;1.10;1.00;;;27.40;75.00;;;;;;4955070;29;20478;-85
2022/08/21 05:52:20;;;;;;;1.53;1.43;;;27.40;75.20;;;;;;4954870;29;20450;-85
2022/08/21 05:54:49;;;;;;;1.27;1.17;;;27.40;75.10;;;;;;4955026;28;20545;-87
2022/08/21 05:57:16;;;;;;;1.77;1.20;;;27.40;75.00;;;;;;4957828;29;20485;-85
2022/08/21 05:59:43;;;;;;;1.10;1.00;;;27.40;75.20;;;;;;4958332;29;20968;-85
2022/08/21 06:02:11;;;;;;;1.40;1.30;;;27.40;75.20;;;;;;4958459;29;20446;-84
2022/08/21 06:04:38;;;;;;;1.50;1.40;;;27.40;75.10;;;;;;4958429;29;20454;-87
2022/08/21 06:07:06;;;;;;;1.20;1.10;;;27.40;74.90;;;;;;4958036;29;20489;-85
2022/08/21 06:09:33;;;;;;;1.20;1.10;;;27.40;75.20;;;;;;4958071;29;20481;-85
2022/08/21 06:12:06;;;;;;;1.57;1.47;;;27.40;75.10;;;;;;4958179;29;20489;-85
2022/08/21 06:14:33;;;;;;;1.20;1.10;;;27.40;75.20;;;;;;4957955;29;20470;-85
2022/08/21 06:17:04;;;;;;;1.20;1.10;;;27.40;75.30;;;;;;4957646;29;20485;-84
2022/08/21 06:19:31;;;;;;;1.50;1.40;;;27.40;75.20;;;;;;4958115;29;20447;-85
2022/08/21 06:21:58;;;;;;;1.30;1.20;;;27.40;75.10;;;;;;4958046;29;20473;-84
2022/08/21 06:24:25;;;;;;;1.20;1.10;;;27.40;75.20;;;;;;4958076;29;20524;-85
2022/08/21 06:26:52;;;;;;;1.40;1.20;;;27.40;75.40;;;;;;4957845;29;20478;-85
2022/08/21 06:29:21;;;;;;;0.93;0.90;;;27.40;75.10;;;;;;4957733;29;20543;-86
2022/08/21 06:31:48;;;;;;;1.00;0.90;;;27.50;75.20;;;;;;4957866;29;20500;-84
2022/08/21 06:34:16;;;;;;;1.30;1.20;;;27.50;75.40;;;;;;4965419;28;20442;-85
2022/08/21 06:36:43;;;;;;;4.37;1.40;;;27.40;75.20;;;;;;4977293;28;20472;-92
2022/08/21 06:39:09;;;;;;;3.77;3.27;;;27.40;75.10;;;;;;4977082;28;20529;-85
2022/08/21 06:41:36;;;;;;;5.00;4.57;;;27.20;74.30;;;;;;4976804;28;20793;-93
2022/08/21 06:44:03;;;;;;;5.00;4.17;;;27.00;73.90;;;;;;4976711;28;20500;-93
2022/08/21 06:46:33;;;;;;;6.33;4.07;;;26.80;74.00;;;;;;4976835;28;20482;-84
2022/08/21 06:49:00;;;;;;;6.10;4.00;;;26.70;73.80;;;;;;4976760;28;20617;-84
2022/08/21 06:51:28;;;;;;;5.57;5.00;;;26.70;73.90;;;;;;4976847;28;20465;-84
2022/08/21 06:53:55;;;;;;;8.00;5.10;;;26.60;74.00;;;;;;4976693;28;20532;-86
2022/08/21 06:56:22;;;;;;;8.20;4.77;;;26.50;74.20;;;;;;4976590;28;20483;-85
2022/08/21 06:58:49;;;;;;;5.73;4.53;;;26.50;74.10;;;;;;4976844;28;20477;-84
2022/08/21 07:01:16;;;;;;;6.73;4.47;;;26.60;74.00;;;;;;4976350;28;20473;-88
2022/08/21 07:03:44;;;;;;;6.73;4.53;;;26.50;73.90;;;;;;4976705;28;20492;-86
2022/08/21 07:06:12;;;;;;;4.43;4.03;;;26.50;73.90;;;;;;4976264;28;20488;-85
2022/08/21 07:08:40;;;;;;;7.07;4.60;;;26.50;73.90;;;;;;4976607;28;20492;-90
2022/08/21 07:11:13;;;;;;;8.37;4.87;;;26.40;74.00;;;;;;4976229;28;20477;-84
2022/08/21 07:13:40;;;;;;;6.27;4.63;;;26.50;73.80;;;;;;4976452;28;20545;-90
2022/08/21 07:16:08;;;;;;;6.17;4.53;;;26.40;73.80;;;;;;4976418;28;20590;-89
2022/08/21 07:18:35;;;;;;;4.67;3.90;;;26.50;73.70;;;;;;4968627;28;20448;-84
2022/08/21 07:21:04;;;;;;;6.13;4.30;;;26.50;73.20;;;;;;4976204;28;20472;-84
2022/08/21 07:23:33;;;;;;;5.03;4.47;;;26.50;73.10;;;;;;4961716;28;20453;-82
2022/08/21 07:26:00;;;;;;;4.70;4.10;;;26.50;73.10;;;;;;4955676;29;20501;-91
2022/08/21 07:28:27;;;;;;;12.50;4.03;;;26.60;73.10;;;;;;4956674;29;20832;-83
2022/08/21 07:30:56;;;;;;;9.70;3.83;;;26.60;72.80;;;;;;4956694;29;20489;-83
2022/08/21 07:33:25;;;;;;;5.80;4.00;;;26.70;72.40;;;;;;4956640;29;20525;-85
2022/08/21 07:35:52;;;;;;;6.23;3.43;;;26.70;72.50;;;;;;4956687;29;20442;-91
2022/08/21 07:38:20;;;;;;;5.00;3.40;;;26.70;72.50;;;;;;4956644;29;20521;-82
2022/08/21 07:40:48;;;;;;;5.70;3.50;;;26.80;72.50;;;;;;4956338;29;20453;-91
2022/08/21 07:43:17;;;;;;;7.10;3.17;;;26.80;72.00;;;;;;4956516;28;20490;-83
2022/08/21 07:45:44;;;;;;;4.37;2.60;;;26.80;71.20;;;;;;4958620;28;20476;-92
2022/08/21 07:48:11;;;;;;;8.70;3.60;;;26.90;71.00;;;;;;4957754;28;20572;-82
2022/08/21 07:50:40;;;;;;;6.00;2.77;;;26.90;70.50;;;;;;4956790;29;20937;-85
2022/08/21 07:53:07;;;;;;;5.20;3.00;;;26.90;69.90;;;;;;4971944;28;20459;-84
2022/08/21 20:01:40;;;;;;;3.53;1.80;;;26.60;63.90;;;;;;4972714;28;20476;-84
2022/08/21 20:04:08;;;;;;;2.90;1.93;;;26.50;65.20;;;;;;4973122;28;20504;-85
2022/08/21 20:06:36;;;;;;;2.03;1.57;;;26.50;64.30;;;;;;4972887;28;20453;-85
2022/08/21 20:09:04;;;;;;;2.73;2.40;;;26.50;64.40;;;;;;4972932;28;20493;-84
2022/08/21 20:11:36;;;;;;;4.30;1.87;;;26.50;64.60;;;;;;4973525;28;20474;-86
2022/08/21 20:14:04;;;;;;;4.03;1.97;;;26.50;64.70;;;;;;4974433;28;20535;-85
2022/08/21 20:16:33;;;;;;;3.47;2.10;;;26.50;64.90;;;;;;4975081;28;20441;-85
2022/08/21 20:19:04;;;;;;;2.10;1.90;;;26.40;64.90;;;;;;4974701;28;20441;-82
2022/08/21 20:21:32;;;;;;;4.20;1.60;;;26.50;65.10;;;;;;4975020;28;20441;-83
2022/08/21 20:23:59;;;;;;;3.73;2.10;;;26.60;65.10;;;;;;4973656;28;20540;-82
2022/08/21 20:26:26;;;;;;;2.87;1.80;;;26.70;65.10;;;;;;4973455;28;20444;-82
2022/08/21 20:28:54;;;;;;;3.50;1.50;;;26.80;66.20;;;;;;4974555;28;20489;-82
2022/08/21 20:31:22;;;;;;;2.57;1.50;;;26.90;65.70;;;;;;4974697;28;20524;-93
2022/08/21 20:33:49;;;;;;;1.63;1.53;;;27.00;66.20;;;;;;4974678;28;20528;-82
2022/08/21 20:36:18;;;;;;;1.67;1.30;;;27.00;66.50;;;;;;4974918;28;20537;-82
2022/08/21 20:38:45;;;;;;;2.33;1.20;;;27.10;67.00;;;;;;4974650;28;20441;-82
2022/08/21 20:41:12;;;;;;;2.03;1.30;;;27.10;67.30;;;;;;4974783;28;20858;-82
2022/08/21 20:43:41;;;;;;;1.60;1.27;;;27.10;67.60;;;;;;4974730;28;20441;-82
2022/08/21 20:46:09;;;;;;;1.50;1.40;;;27.10;67.90;;;;;;4974533;28;20528;-82
2022/08/21 20:48:38;;;;;;;5.03;1.60;;;27.10;68.20;;;;;;4973657;28;20910;-83
2022/08/21 20:51:13;;;;;;;1.40;1.00;;;27.10;68.40;;;;;;4974347;28;20445;-86
2022/08/21 20:53:48;;;;;;;1.30;1.20;;;27.20;68.60;;;;;;4974522;28;20477;-82
2022/08/21 20:56:32;;;;;;;2.17;1.37;;;27.20;68.70;;;;;;4974793;28;20474;-82
2022/08/21 20:59:08;;;;;;;1.43;1.33;;;27.20;68.80;;;;;;4974772;28;20441;-82
2022/08/21 21:01:36;;;;;;;1.67;1.27;;;27.20;68.80;;;;;;4974009;28;20485;-82
2022/08/21 21:04:07;;;;;;;2.70;1.27;;;27.20;68.80;;;;;;4974432;28;20816;-83
2022/08/21 21:06:35;;;;;;;1.40;1.30;;;27.20;68.90;;;;;;4974519;28;20525;-82
2022/08/21 21:09:07;;;;;;;1.90;1.33;;;27.20;68.90;;;;;;4974424;28;20488;-82
2022/08/21 21:11:38;;;;;;;1.60;1.20;;;27.20;68.80;;;;;;4974415;28;21020;-83
2022/08/21 21:14:10;;;;;;;1.50;1.40;;;27.20;68.80;;;;;;4974346;28;20532;-82
2022/08/21 21:16:41;;;;;;;2.73;1.70;;;27.30;68.90;;;;;;4974476;28;20449;-83
2022/08/21 21:19:13;;;;;;;1.60;1.43;;;27.30;68.90;;;;;;4974396;28;20508;-82
2022/08/21 21:21:44;;;;;;;1.80;1.33;;;27.30;68.90;;;;;;4974505;28;20883;-82
2022/08/21 21:24:18;;;;;;;1.43;1.17;;;27.30;69.00;;;;;;4976186;28;20476;-82
2022/08/21 21:26:48;;;;;;;1.63;1.20;;;27.30;69.10;;;;;;4979751;28;20447;-82
2022/08/21 21:29:20;;;;;;;1.50;1.20;;;27.30;69.20;;;;;;4980728;28;20568;-81
2022/08/21 21:31:47;;;;;;;1.40;1.27;;;27.30;69.30;;;;;;4978314;28;20461;-82
2022/08/21 21:34:14;;;;;;;1.83;1.50;;;27.30;69.30;;;;;;4978614;28;20438;-83
2022/08/21 21:36:44;;;;;;;1.33;1.23;;;27.30;69.40;;;;;;4978576;28;20548;-82
2022/08/21 21:39:21;;;;;;;1.43;1.30;;;27.30;69.40;;;;;;4980874;28;20449;-82
2022/08/21 21:41:54;;;;;;;1.57;1.47;;;27.30;69.40;;;;;;4981045;28;20444;-81
2022/08/21 21:44:37;;;;;;;1.43;1.20;;;27.30;69.50;;;;;;4979378;28;20444;-90
2022/08/21 21:47:13;;;;;;;1.97;1.03;;;27.30;69.50;;;;;;4978100;28;20445;-86
2022/08/21 21:49:54;;;;;;;1.27;1.17;;;27.30;69.50;;;;;;4977670;28;20582;-82
2022/08/21 21:52:40;;;;;;;1.20;1.10;;;27.30;69.50;;;;;;4977854;28;20441;-82
2022/08/21 21:55:22;;;;;;;1.63;1.43;;;27.30;69.60;;;;;;4977596;28;20441;-82
2022/08/21 21:58:03;;;;;;;1.30;1.07;;;27.30;69.60;;;;;;4977599;28;20956;-83
2022/08/21 22:00:33;;;;;;;1.43;1.30;;;27.30;69.60;;;;;;4977393;28;20847;-82
2022/08/21 22:03:08;;;;;;;1.50;1.40;;;27.30;69.70;;;;;;4977641;28;20853;-82
2022/08/21 22:05:55;;;;;;;1.67;1.20;;;27.30;69.70;;;;;;4977655;28;20448;-83
2022/08/21 22:08:28;;;;;;;2.73;1.50;;;27.30;69.70;;;;;;4977412;28;20449;-82
2022/08/21 22:11:03;;;;;;;1.40;1.27;;;27.30;69.90;;;;;;4977516;28;20453;-82
2022/08/21 22:13:33;;;;;;;1.47;1.30;;;27.30;69.90;;;;;;4977456;28;20450;-83
2022/08/21 22:16:02;;;;;;;2.03;1.33;;;27.30;69.90;;;;;;4977246;28;20527;-82
2022/08/21 22:18:32;;;;;;;2.23;1.33;;;27.30;70.00;;;;;;4977279;28;20812;-82
2022/08/21 22:21:04;;;;;;;2.90;1.30;;;27.30;70.00;;;;;;4977173;28;20537;-83
2022/08/21 22:23:35;;;;;;;1.50;1.40;;;27.30;70.10;;;;;;4977215;28;20481;-82
2022/08/21 22:26:07;;;;;;;1.43;1.20;;;27.30;70.00;;;;;;4977343;28;20536;-82
2022/08/21 22:28:37;;;;;;;1.63;1.53;;;27.30;70.10;;;;;;4977094;28;20481;-94
2022/08/21 22:31:14;;;;;;;1.73;1.20;;;27.30;70.10;;;;;;4976999;28;20556;-83
2022/08/21 22:33:41;;;;;;;1.90;1.23;;;27.30;70.10;;;;;;4976871;28;20581;-91
2022/08/21 22:36:17;;;;;;;1.37;1.27;;;27.30;70.20;;;;;;4977080;28;20956;-82
2022/08/21 22:38:44;;;;;;;2.93;1.33;;;27.30;70.20;;;;;;4976233;28;20476;-82
2022/08/21 22:41:17;;;;;;;2.83;1.53;;;27.30;70.30;;;;;;4976937;28;20446;-94
2022/08/21 22:43:53;;;;;;;1.30;1.20;;;27.30;70.30;;;;;;4976960;28;20476;-82
2022/08/21 22:46:28;;;;;;;1.40;1.30;;;27.30;70.30;;;;;;4976945;28;20937;-82
2022/08/21 22:49:00;;;;;;;1.47;1.37;;;27.30;70.30;;;;;;4976691;28;20572;-82
2022/08/21 22:51:32;;;;;;;2.13;1.43;;;27.30;70.30;;;;;;4976780;28;20532;-83
2022/08/21 22:53:59;;;;;;;2.07;1.37;;;27.30;70.40;;;;;;4976534;28;20448;-92
2022/08/21 22:56:33;;;;;;;1.80;1.40;;;27.30;70.40;;;;;;4959317;28;20449;-82
2022/08/21 22:59:03;;;;;;;1.63;1.40;;;27.30;70.40;;;;;;4976528;28;20446;-82
2022/08/21 23:01:35;;;;;;;1.83;1.10;;;27.30;70.40;;;;;;4976360;28;20834;-82
2022/08/21 23:04:19;;;;;;;1.80;1.70;;;27.30;70.50;;;;;;4976707;28;20445;-81
2022/08/21 23:06:49;;;;;;;1.87;1.30;;;27.30;70.40;;;;;;4976664;28;20545;-82
2022/08/21 23:09:28;;;;;;;1.80;1.70;;;27.30;70.50;;;;;;4976515;28;20560;-91
2022/08/21 23:12:00;;;;;;;1.97;1.30;;;27.30;70.40;;;;;;4976493;28;20514;-83
2022/08/21 23:14:28;;;;;;;1.43;1.33;;;27.30;70.50;;;;;;4976448;28;20442;-81
2022/08/21 23:16:59;;;;;;;1.50;1.23;;;27.30;70.60;;;;;;4976234;28;20527;-81
2022/08/21 23:19:49;;;;;;;1.33;1.23;;;27.30;70.60;;;;;;4976325;28;20445;-82
2022/08/21 23:22:29;;;;;;;2.00;1.27;;;27.30;70.50;;;;;;4976061;28;20487;-82
2022/08/21 23:25:12;;;;;;;1.73;1.10;;;27.30;70.70;;;;;;4976293;28;20532;-82
2022/08/21 23:27:54;;;;;;;1.93;1.43;;;27.30;70.70;;;;;;4976165;28;20852;-83
2022/08/21 23:30:30;;;;;;;1.47;1.20;;;27.30;70.70;;;;;;4975930;28;20492;-82
2022/08/21 23:33:13;;;;;;;1.37;1.27;;;27.30;70.80;;;;;;4976067;28;20972;-82
2022/08/21 23:38:43;;;;;;;1.53;1.43;;;27.30;70.80;;;;;;4976198;28;20796;-81
2022/08/21 23:41:27;;;;;;;2.77;1.60;;;27.30;70.80;;;;;;4975837;28;20527;-83
2022/08/21 23:44:20;;;;;;;1.60;1.10;;;27.30;70.80;;;;;;4975769;28;20437;-83
2022/08/21 23:46:59;;;;;;;1.30;1.20;;;27.30;70.80;;;;;;4975810;28;20528;-83
2022/08/21 23:49:38;;;;;;;1.50;1.40;;;27.20;70.90;;;;;;4974821;28;20576;-92
2022/08/21 23:52:15;;;;;;;1.43;1.33;;;27.30;71.00;;;;;;4975665;28;20445;-82
2022/08/21 23:54:56;;;;;;;1.60;1.30;;;27.20;70.90;;;;;;4975657;28;20792;-82
2022/08/21 23:57:36;;;;;;;1.63;1.40;;;27.20;70.90;;;;;;4975611;28;20524;-93
